Time;durP1;ratioP1;P1;durP2;ratioP2;P2;SDS_P1;SDS_P2;PMS_P1;PMS_P2;Temp;Humidity;BMP_temperature;BMP_pressure;BME280_temperature;BME280_humidity;BME280_pressure;Samples;Min_cycle;Max_cycle;Signal;HPM_P1;HPM_P2
2022/05/12 00:00:21;;;;;;;5.90;5.37;;;;;;;12.95;75.31;97507.91;5070934;28;20235;-87
2022/05/12 00:02:49;;;;;;;6.70;6.00;;;;;;;13.22;74.88;97538.75;5089233;28;20276;-88
2022/05/12 00:05:18;;;;;;;9.47;5.77;;;;;;;13.20;75.17;97538.81;5088901;28;20202;-86
2022/05/12 00:07:47;;;;;;;7.83;5.80;;;;;;;13.26;75.29;97546.31;5070161;28;20199;-85
2022/05/12 00:10:18;;;;;;;7.03;5.10;;;;;;;12.61;74.29;97437.66;5037018;28;20240;-86
2022/05/12 00:12:48;;;;;;;6.63;5.57;;;;;;;13.16;75.27;97560.69;5055486;28;20256;-88
2022/05/12 00:15:21;;;;;;;7.27;6.13;;;;;;;12.70;76.09;97489.19;5090017;28;20684;-88
2022/05/12 00:17:56;;;;;;;6.93;5.33;;;;;;;12.80;76.75;97525.97;5090995;28;20252;-86
2022/05/12 00:20:24;;;;;;;5.87;5.27;;;;;;;12.91;76.61;97547.97;5091990;28;20186;-87
2022/05/12 00:22:51;;;;;;;6.47;5.80;;;;;;;12.98;76.29;97551.94;5091754;28;20215;-85
2022/05/12 00:25:23;;;;;;;6.93;5.13;;;;;;;12.71;76.16;97511.69;5074769;28;20184;-86
2022/05/12 00:27:50;;;;;;;8.00;5.83;;;;;;;12.66;77.03;97518.84;5074126;28;20278;-87
2022/05/12 00:30:18;;;;;;;6.17;5.13;;;;;;;12.83;76.80;97538.84;5074587;28;20224;-85
2022/05/12 00:32:47;;;;;;;9.13;5.60;;;;;;;12.83;76.97;97547.50;5093420;28;20187;-85
2022/05/12 00:35:18;;;;;;;7.63;6.10;;;;;;;12.97;76.46;97550.28;5096414;28;20222;-85
2022/05/12 00:37:45;;;;;;;7.63;5.70;;;;;;;12.85;75.46;97527.47;5100031;28;20555;-84
2022/05/12 00:40:14;;;;;;;8.03;5.97;;;;;;;12.88;76.50;97540.31;5080529;28;20599;-86
2022/05/12 00:43:32;;;;;;;8.20;6.00;;;;;;;12.95;76.62;97546.91;5098214;28;20195;-85
2022/05/12 00:46:00;;;;;;;9.23;6.00;;;;;;;12.97;76.04;97547.69;5054464;28;20200;-86
2022/05/12 00:48:28;;;;;;;7.57;6.77;;;;;;;12.75;75.47;97508.03;5090515;28;20195;-86
2022/05/12 00:50:55;;;;;;;8.30;6.40;;;;;;;12.99;75.82;97540.66;5092030;28;20310;-85
2022/05/12 00:53:22;;;;;;;8.70;6.83;;;;;;;13.13;75.55;97549.59;5090732;28;20234;-88
2022/05/12 00:55:56;;;;;;;7.83;5.93;;;;;;;13.01;75.10;97540.56;5096162;28;20192;-89
2022/05/12 00:58:23;;;;;;;8.37;6.37;;;;;;;13.18;74.95;97547.59;5101648;28;20281;-87
2022/05/12 01:00:51;;;;;;;8.93;6.07;;;;;;;13.05;74.28;97540.38;5091357;28;20635;-87
2022/05/12 01:03:23;;;;;;;6.33;5.73;;;;;;;13.14;74.88;97546.91;5070140;28;20187;-87
2022/05/12 01:05:52;;;;;;;11.77;6.10;;;;;;;12.91;74.10;97505.53;5088956;28;20249;-90
2022/05/12 01:08:22;;;;;;;7.20;5.53;;;;;;;12.83;74.49;97511.09;5088272;28;20279;-90
2022/05/12 01:11:03;;;;;;;6.70;5.90;;;;;;;12.93;73.92;97540.94;5073491;28;20733;-90
2022/05/12 01:13:31;;;;;;;6.37;5.30;;;;;;;12.71;74.49;97496.09;5093925;28;20192;-88
2022/05/12 01:16:01;;;;;;;6.27;4.73;;;;;;;13.20;73.38;97546.63;5092678;28;20690;-93
2022/05/12 01:18:30;;;;;;;9.97;6.37;;;;;;;13.43;72.58;97555.91;5091285;28;20666;-88
2022/05/12 01:20:58;;;;;;;6.73;5.10;;;;;;;13.50;71.87;97533.88;5091205;28;20223;-87
2022/05/12 01:23:38;;;;;;;7.83;5.77;;;;;;;13.40;71.56;97532.63;5092553;28;20245;-86
2022/05/12 01:26:11;;;;;;;7.80;6.00;;;;;;;13.48;72.09;97557.38;5074201;28;20630;-85
2022/05/12 01:28:38;;;;;;;7.27;5.23;;;;;;;13.05;71.98;97524.78;5096388;28;20768;-87
2022/05/12 01:31:06;;;;;;;8.73;5.93;;;;;;;12.94;72.57;97568.59;5117181;28;20218;-85
2022/05/12 01:33:34;;;;;;;7.67;5.30;;;;;;;12.70;73.83;97556.75;5097317;28;20376;-86
2022/05/12 01:36:01;;;;;;;6.93;5.77;;;;;;;12.91;73.06;97560.13;5112615;28;20195;-86
2022/05/12 01:38:29;;;;;;;6.20;5.10;;;;;;;12.91;73.10;97544.53;5111057;28;20183;-86
2022/05/12 01:40:57;;;;;;;6.47;5.53;;;;;;;13.06;70.97;97539.47;5093500;28;20183;-86
2022/05/12 01:43:24;;;;;;;6.53;5.67;;;;;;;13.23;70.77;97556.03;5077101;28;20206;-86
2022/05/12 01:45:51;;;;;;;6.43;5.17;;;;;;;13.23;70.12;97550.84;5093039;28;20196;-88
2022/05/12 01:48:19;;;;;;;10.77;5.87;;;;;;;12.89;71.72;97561.94;5091605;28;20191;-86
2022/05/12 01:50:48;;;;;;;8.60;5.60;;;;;;;12.60;72.38;97562.44;5090639;28;20246;-87
2022/05/12 01:53:18;;;;;;;7.47;6.60;;;;;;;12.21;74.85;97552.06;5090353;28;20207;-93
2022/05/12 01:55:48;;;;;;;8.40;6.70;;;;;;;11.84;76.51;97526.03;5079464;28;20201;-86
2022/05/12 01:58:18;;;;;;;9.00;6.37;;;;;;;12.20;76.71;97582.38;5077406;28;20206;-85
2022/05/12 02:00:46;;;;;;;11.33;6.33;;;;;;;12.27;75.96;97588.16;5095335;28;20193;-86
2022/05/12 02:03:14;;;;;;;8.13;6.53;;;;;;;12.15;76.20;97552.34;5091071;28;20678;-85
2022/05/12 02:05:44;;;;;;;8.13;6.40;;;;;;;11.80;77.83;97534.84;5107803;28;20184;-87
2022/05/12 02:08:13;;;;;;;7.50;6.30;;;;;;;11.85;78.98;97583.03;5098826;28;20177;-84
2022/05/12 02:10:42;;;;;;;8.03;6.23;;;;;;;11.55;79.46;97526.38;5092294;28;20299;-85
2022/05/12 02:13:11;;;;;;;9.60;6.73;;;;;;;11.27;78.96;97472.25;5092321;28;20190;-86
2022/05/12 02:15:39;;;;;;;8.27;6.63;;;;;;;11.48;78.92;97518.00;5091841;28;20183;-87
2022/05/12 02:18:07;;;;;;;13.60;7.20;;;;;;;11.60;78.80;97547.81;5090862;28;20577;-86
2022/05/12 02:20:35;;;;;;;7.03;5.97;;;;;;;11.64;79.17;97555.41;5072708;28;20196;-86
2022/05/12 02:23:03;;;;;;;8.50;6.40;;;;;;;11.80;79.16;97578.97;5090396;28;20568;-86
2022/05/12 02:25:31;;;;;;;9.90;6.23;;;;;;;11.78;78.93;97575.59;5090605;28;20213;-86
2022/05/12 02:27:58;;;;;;;8.27;5.63;;;;;;;11.57;78.93;97530.59;5090665;28;20587;-85
2022/05/12 02:30:28;;;;;;;6.40;5.77;;;;;;;12.01;78.00;97585.84;5071058;28;20219;-87
2022/05/12 02:32:56;;;;;;;6.83;5.53;;;;;;;12.17;76.98;97582.53;5091723;28;20191;-86
2022/05/12 02:35:25;;;;;;;7.53;5.93;;;;;;;12.13;77.08;97582.72;5071996;28;20185;-90
2022/05/12 02:37:52;;;;;;;8.93;6.17;;;;;;;11.95;77.66;97583.53;5090099;28;20244;-87
2022/05/12 02:40:24;;;;;;;7.63;6.00;;;;;;;11.65;77.42;97545.84;5072001;28;20251;-89
2022/05/12 02:42:51;;;;;;;8.83;6.30;;;;;;;11.64;77.40;97539.84;5072496;28;20246;-88
2022/05/12 02:45:19;;;;;;;8.17;6.77;;;;;;;11.95;76.98;97578.34;5090715;28;20183;-87
2022/05/12 02:47:46;;;;;;;8.87;6.17;;;;;;;11.96;76.92;97572.22;5090512;28;20219;-86
2022/05/12 02:50:17;;;;;;;7.97;6.00;;;;;;;12.21;75.53;97586.69;5073021;28;20265;-86
2022/05/12 02:52:45;;;;;;;6.37;5.43;;;;;;;12.17;75.11;97581.69;5090455;28;20199;-87
2022/05/12 02:55:13;;;;;;;6.20;5.60;;;;;;;11.97;76.37;97579.09;5071454;28;20198;-88
2022/05/12 02:57:41;;;;;;;8.50;5.90;;;;;;;11.98;76.80;97585.97;5094368;28;20190;-85
2022/05/12 03:00:12;;;;;;;9.13;5.83;;;;;;;12.05;76.44;97574.44;5092002;28;20632;-88
2022/05/12 03:02:39;;;;;;;8.90;6.63;;;;;;;12.04;75.89;97583.13;5089441;28;20217;-87
2022/05/12 03:05:07;;;;;;;8.10;6.57;;;;;;;11.86;77.14;97573.50;5071460;28;20278;-87
2022/05/12 03:07:35;;;;;;;8.87;6.53;;;;;;;11.27;77.57;97493.81;5089850;28;20183;-89
2022/05/12 03:10:03;;;;;;;8.03;6.47;;;;;;;11.67;77.72;97564.81;5055828;28;20590;-88
2022/05/12 03:12:33;;;;;;;7.57;6.00;;;;;;;12.04;76.75;97590.91;5090620;28;20706;-87
2022/05/12 03:15:00;;;;;;;8.67;6.40;;;;;;;11.69;76.27;97548.28;5091850;28;20183;-88
2022/05/12 03:17:31;;;;;;;10.77;6.73;;;;;;;11.64;76.75;97559.72;5093822;28;20742;-86
2022/05/12 03:19:58;;;;;;;10.20;6.93;;;;;;;11.71;77.51;97587.13;5094240;28;20669;-85
2022/05/12 03:22:27;;;;;;;11.57;7.60;;;;;;;11.55;77.66;97570.47;5095265;28;20224;-86
2022/05/12 03:24:54;;;;;;;9.37;6.67;;;;;;;11.67;77.51;97593.34;5063112;28;20239;-86
2022/05/12 03:27:21;;;;;;;8.97;6.20;;;;;;;11.50;77.83;97562.06;5089906;28;20195;-88
2022/05/12 03:29:48;;;;;;;8.20;6.73;;;;;;;11.84;76.45;97588.31;5070341;28;20203;-91
2022/05/12 03:32:15;;;;;;;11.60;7.37;;;;;;;12.19;74.69;97591.09;5090419;28;20213;-89
2022/05/12 03:34:44;;;;;;;8.97;6.53;;;;;;;12.00;75.14;97569.44;5093040;28;20195;-87
2022/05/12 03:37:11;;;;;;;12.00;7.10;;;;;;;11.91;76.58;97574.19;5089180;28;20204;-87
2022/05/12 03:39:43;;;;;;;9.67;6.57;;;;;;;12.15;76.83;97604.28;5064170;28;20186;-85
2022/05/12 03:42:15;;;;;;;8.00;5.47;;;;;;;12.19;75.53;97588.50;5097688;28;20203;-87
2022/05/12 03:44:55;;;;;;;11.30;7.13;;;;;;;12.31;75.98;97599.25;5091102;28;20214;-89
2022/05/12 03:47:32;;;;;;;7.27;6.20;;;;;;;12.42;75.80;97616.06;5063172;28;20202;-85
2022/05/12 03:50:12;;;;;;;8.27;6.53;;;;;;;12.55;76.34;97611.19;5093283;28;20186;-89
2022/05/12 03:52:47;;;;;;;8.97;6.30;;;;;;;12.55;75.17;97604.22;5075720;28;20194;-85
2022/05/12 03:55:17;;;;;;;8.00;6.30;;;;;;;12.49;75.25;97616.66;5089056;28;20625;-87
2022/05/12 03:57:46;;;;;;;6.47;5.50;;;;;;;12.61;75.07;97622.13;5095663;28;20185;-84
2022/05/12 04:00:18;;;;;;;10.27;6.20;;;;;;;12.88;73.81;97627.88;5092114;28;20186;-86
2022/05/12 04:02:48;;;;;;;8.90;5.60;;;;;;;12.77;73.33;97604.94;5092918;28;20186;-84
2022/05/12 04:05:15;;;;;;;8.57;6.10;;;;;;;13.10;72.07;97639.00;5077563;28;20700;-83
2022/05/12 04:07:49;;;;;;;8.20;6.40;;;;;;;13.21;71.12;97638.50;5072904;28;20225;-83
2022/05/12 04:10:16;;;;;;;10.13;5.93;;;;;;;13.41;71.25;97638.41;5093077;28;20209;-85
2022/05/12 04:12:45;;;;;;;8.20;5.73;;;;;;;13.49;69.96;97623.25;5092614;28;20192;-87
2022/05/12 04:15:15;;;;;;;6.53;5.00;;;;;;;13.43;70.13;97600.13;5088909;28;20195;-84
2022/05/12 04:17:44;;;;;;;7.60;5.73;;;;;;;13.80;69.75;97633.88;5091727;28;20751;-86
2022/05/12 04:20:12;;;;;;;8.40;5.57;;;;;;;13.36;69.82;97562.31;5072831;28;20207;-84
2022/05/12 04:22:42;;;;;;;8.10;5.97;;;;;;;13.74;69.88;97636.78;5094586;28;20771;-87
2022/05/12 04:25:11;;;;;;;8.30;6.07;;;;;;;13.91;69.03;97623.75;5071592;28;20193;-87
2022/05/12 04:27:44;;;;;;;8.70;5.80;;;;;;;14.10;69.01;97629.75;5072928;28;20224;-84
2022/05/12 04:30:13;;;;;;;6.30;5.40;;;;;;;13.89;68.93;97608.22;5071712;28;20195;-83
2022/05/12 04:32:41;;;;;;;8.97;5.73;;;;;;;13.92;69.25;97612.44;5071657;28;20295;-87
2022/05/12 04:35:11;;;;;;;8.50;5.77;;;;;;;14.11;69.37;97635.81;5071017;28;20195;-87
2022/05/12 04:37:47;;;;;;;6.83;5.50;;;;;;;14.12;69.38;97633.09;5071390;28;20238;-85
2022/05/12 04:40:23;;;;;;;8.47;5.47;;;;;;;14.26;69.23;97641.06;5056445;28;20587;-85
2022/05/12 04:42:55;;;;;;;9.47;5.83;;;;;;;14.33;69.23;97626.84;5054792;28;20282;-84
2022/05/12 04:45:25;;;;;;;7.77;5.27;;;;;;;14.42;69.07;97610.75;5094608;28;21059;-84
2022/05/12 04:47:53;;;;;;;8.33;5.30;;;;;;;14.64;68.17;97613.91;5097158;28;20215;-85
2022/05/12 04:50:28;;;;;;;7.83;4.93;;;;;;;15.14;67.10;97647.72;5060661;28;20200;-85
2022/05/12 04:52:55;;;;;;;8.60;6.10;;;;;;;15.48;66.18;97638.09;5094023;28;20190;-85
2022/05/12 04:55:24;;;;;;;7.20;5.80;;;;;;;15.79;64.93;97632.78;5094180;28;20736;-87
2022/05/12 04:57:56;;;;;;;9.80;5.17;;;;;;;16.29;63.08;97636.78;5095322;28;20631;-85
2022/05/12 05:00:40;;;;;;;9.07;4.80;;;;;;;16.46;61.61;97643.66;5078538;28;20620;-88
2022/05/12 05:03:10;;;;;;;9.27;5.60;;;;;;;16.50;61.68;97645.16;5061870;28;20258;-86
2022/05/12 05:05:45;;;;;;;4.93;4.37;;;;;;;16.36;61.33;97625.97;5080457;28;20223;-85
2022/05/12 05:08:18;;;;;;;8.40;5.27;;;;;;;16.21;61.91;97625.09;5096685;28;20186;-85
2022/05/12 05:10:48;;;;;;;8.50;5.07;;;;;;;16.41;61.43;97640.44;5077792;28;20197;-84
2022/05/12 05:13:29;;;;;;;6.57;5.80;;;;;;;16.22;61.09;97596.25;5080730;28;20196;-85
2022/05/12 05:16:12;;;;;;;7.13;5.77;;;;;;;16.81;59.79;97645.00;5036832;28;20205;-86
2022/05/12 05:19:09;;;;;;;8.07;5.30;;;;;;;16.44;59.13;97546.16;5092628;28;20269;-87
2022/05/12 05:21:48;;;;;;;7.90;5.10;;;;;;;17.05;58.90;97629.56;5088023;28;20743;-95
2022/05/12 05:24:15;;;;;;;9.07;6.00;;;;;;;17.44;58.05;97607.88;5069214;28;20283;-91
2022/05/12 05:26:45;;;;;;;10.27;7.03;;;;;;;17.82;56.96;97650.84;5083911;28;20201;-85
2022/05/12 05:29:15;;;;;;;7.73;5.20;;;;;;;18.08;56.08;97636.84;5070257;28;20568;-87
2022/05/12 05:31:50;;;;;;;7.73;5.60;;;;;;;17.92;56.08;97623.09;5083934;28;20260;-90
2022/05/12 05:34:18;;;;;;;9.00;4.93;;;;;;;18.39;55.56;97652.22;5081954;28;20237;-88
2022/05/12 05:36:51;;;;;;;7.27;5.13;;;;;;;18.61;54.43;97635.91;5085685;28;20207;-89
2022/05/12 05:39:25;;;;;;;5.23;4.67;;;;;;;18.79;54.81;97645.16;5103257;28;20202;-85
2022/05/12 05:42:03;;;;;;;13.50;4.67;;;;;;;19.00;54.16;97646.28;5102169;28;20204;-84
2022/05/12 05:44:32;;;;;;;7.77;5.93;;;;;;;19.10;53.44;97618.41;5111050;28;20180;-87
2022/05/12 05:47:08;;;;;;;5.97;4.43;;;;;;;19.08;54.12;97651.81;5099241;28;20270;-90
2022/05/12 05:49:37;;;;;;;14.37;5.47;;;;;;;19.13;53.67;97605.09;5112568;28;20188;-87
2022/05/12 05:54:57;;;;;;;9.70;5.40;;;;;;;19.35;54.65;97659.59;5108496;28;20199;-86
2022/05/12 05:57:34;;;;;;;8.33;4.50;;;;;;;19.17;53.84;97609.16;5072015;28;20176;-84
2022/05/12 06:00:05;;;;;;;6.27;5.03;;;;;;;19.24;54.40;97612.22;5083600;28;20225;-90
2022/05/12 06:02:33;;;;;;;8.37;4.90;;;;;;;19.48;53.72;97628.88;5081454;28;20276;-88
2022/05/12 06:05:03;;;;;;;5.73;4.87;;;;;;;19.16;55.20;97643.44;5083741;28;20193;-89
2022/05/12 06:07:35;;;;;;;6.67;4.80;;;;;;;18.97;55.97;97643.03;5101616;28;20200;-90
2022/05/12 06:10:03;;;;;;;8.60;4.70;;;;;;;19.37;54.81;97642.75;5110645;28;20184;-85
2022/05/12 06:12:34;;;;;;;5.37;4.13;;;;;;;19.51;53.99;97636.53;5113650;28;20224;-87
2022/05/12 06:15:02;;;;;;;6.33;4.20;;;;;;;19.41;53.60;97617.94;5092700;28;20589;-85
2022/05/12 06:17:30;;;;;;;6.50;3.77;;;;;;;19.84;52.08;97641.97;5092734;28;20227;-85
2022/05/12 06:19:58;;;;;;;5.33;3.87;;;;;;;19.78;52.01;97628.44;5068467;28;20200;-91
2022/05/12 06:22:25;;;;;;;5.90;3.97;;;;;;;19.72;52.54;97628.88;5099250;28;20217;-85
2022/05/12 06:24:52;;;;;;;5.57;3.77;;;;;;;19.84;52.39;97628.00;5097627;28;20181;-86
2022/05/12 06:27:22;;;;;;;6.73;3.97;;;;;;;19.75;52.44;97611.09;5103031;28;20219;-87
2022/05/12 06:29:51;;;;;;;6.47;4.03;;;;;;;20.42;52.27;97633.25;5083715;28;20188;-86
2022/05/12 06:32:19;;;;;;;6.40;3.37;;;;;;;20.59;51.33;97639.84;5098226;28;20212;-87
2022/05/12 06:34:46;;;;;;;11.90;6.40;;;;;;;20.58;51.69;97641.66;5089600;28;20203;-92
2022/05/12 06:37:13;;;;;;;7.50;4.90;;;;;;;20.85;51.60;97639.56;5108136;28;20193;-87
2022/05/12 06:39:40;;;;;;;9.63;4.33;;;;;;;21.01;50.44;97634.75;5108606;28;20188;-85
2022/05/12 06:42:12;;;;;;;12.10;4.63;;;;;;;21.25;49.85;97639.06;5090015;28;20202;-90
2022/05/12 06:44:44;;;;;;;10.03;4.20;;;;;;;21.43;50.02;97641.09;5074806;28;20189;-85
2022/05/12 06:47:16;;;;;;;5.83;4.50;;;;;;;21.45;48.83;97604.09;5106854;28;20218;-85
2022/05/12 06:49:50;;;;;;;5.77;4.03;;;;;;;21.66;48.55;97637.47;5072660;28;20224;-87
2022/05/12 06:52:20;;;;;;;6.20;3.90;;;;;;;21.60;48.29;97631.84;5085545;28;20233;-87
2022/05/12 06:54:51;;;;;;;14.13;5.93;;;;;;;21.51;47.78;97598.31;5101107;28;20995;-84
2022/05/12 06:57:21;;;;;;;7.30;5.20;;;;;;;21.68;47.78;97632.06;5066385;28;20213;-86
2022/05/12 06:59:56;;;;;;;8.80;4.50;;;;;;;21.64;47.64;97601.63;5081266;28;20187;-85
2022/05/12 07:02:25;;;;;;;5.60;3.67;;;;;;;21.50;46.47;97562.38;5082664;28;20191;-87
2022/05/12 07:04:53;;;;;;;8.37;5.10;;;;;;;22.02;46.95;97635.47;5084127;28;20247;-86
2022/05/12 07:07:27;;;;;;;6.47;4.07;;;;;;;21.85;47.07;97631.56;5084163;28;20775;-88
2022/05/12 07:09:56;;;;;;;5.90;3.90;;;;;;;21.77;47.79;97623.41;5082374;28;20286;-87
2022/05/12 07:12:27;;;;;;;8.00;4.57;;;;;;;21.74;47.61;97626.31;5100253;28;20317;-86
2022/05/12 07:14:56;;;;;;;7.33;4.67;;;;;;;21.79;47.02;97616.22;5082454;28;20197;-87
2022/05/12 07:17:27;;;;;;;8.00;4.93;;;;;;;21.48;46.91;97541.41;5081880;28;20311;-86
2022/05/12 07:26:35;;;;;;;9.70;5.07;;;;;;;22.24;46.57;97624.78;5109326;28;20709;-86
2022/05/12 07:28:22;;;;;;;6.93;4.80;;;;;;;22.31;45.69;97583.75;5088981;28;20192;-87
2022/05/12 07:31:02;;;;;;;10.43;5.60;;;;;;;22.19;45.85;97575.06;5091967;28;20618;-88
2022/05/12 07:33:44;;;;;;;7.67;4.27;;;;;;;22.29;45.41;97604.16;5103236;28;20191;-86
2022/05/12 07:36:16;;;;;;;6.30;5.13;;;;;;;22.64;45.58;97621.38;5098960;28;20184;-86
2022/05/12 07:38:45;;;;;;;11.40;6.33;;;;;;;22.83;44.30;97606.59;5100716;28;20242;-85
2022/05/12 07:41:18;;;;;;;9.07;5.10;;;;;;;23.13;42.54;97617.16;5083368;28;20182;-85
2022/05/12 07:43:47;;;;;;;9.43;4.53;;;;;;;23.46;41.79;97622.16;5083154;28;20232;-88
2022/05/12 07:46:19;;;;;;;12.70;4.60;;;;;;;23.32;41.27;97575.81;5068803;28;20196;-90
2022/05/12 07:48:46;;;;;;;5.03;4.37;;;;;;;23.81;40.69;97613.72;5101373;28;20193;-86
2022/05/12 07:51:14;;;;;;;5.17;3.90;;;;;;;23.80;40.71;97615.53;5105148;28;20206;-87
2022/05/12 07:53:51;;;;;;;9.80;5.13;;;;;;;23.88;40.94;97610.41;5080288;28;20231;-85
2022/05/12 07:56:26;;;;;;;10.40;5.67;;;;;;;23.95;40.20;97614.16;5061557;28;20179;-85
2022/05/12 07:58:55;;;;;;;7.87;5.10;;;;;;;23.66;40.09;97570.97;5109482;28;20291;-84
2022/05/12 08:01:24;;;;;;;12.73;5.23;;;;;;;23.98;40.62;97603.31;5111143;28;20250;-85
2022/05/12 08:03:53;;;;;;;8.33;4.40;;;;;;;24.01;39.98;97581.84;5096468;28;20198;-85
2022/05/12 08:06:21;;;;;;;9.33;4.10;;;;;;;24.31;37.93;97595.94;5074495;28;20194;-85
2022/05/12 08:08:50;;;;;;;7.87;3.47;;;;;;;24.10;37.33;97573.09;5109236;28;20207;-85
2022/05/12 08:11:20;;;;;;;5.17;3.10;;;;;;;24.32;35.29;97597.59;5090090;28;20191;-85
2022/05/12 08:13:49;;;;;;;7.83;3.20;;;;;;;24.36;33.00;97612.25;5091163;28;20259;-85
2022/05/12 08:16:19;;;;;;;4.93;3.07;;;;;;;24.02;34.21;97577.38;5092551;28;20193;-86
2022/05/12 08:18:49;;;;;;;2.83;2.50;;;;;;;23.90;34.54;97578.50;5087996;28;20253;-84
2022/05/12 08:21:23;;;;;;;5.37;2.90;;;;;;;24.17;34.83;97608.59;5089190;28;20812;-85
2022/05/12 08:23:53;;;;;;;11.23;3.30;;;;;;;24.19;33.30;97590.78;5072515;28;20200;-85
2022/05/12 08:26:25;;;;;;;5.57;2.90;;;;;;;24.41;33.92;97602.88;5107786;28;20207;-85
2022/05/12 08:28:52;;;;;;;4.13;2.97;;;;;;;24.38;33.77;97594.41;5097727;28;20195;-85
2022/05/12 08:31:27;;;;;;;4.77;2.67;;;;;;;24.44;31.53;97583.22;5098685;28;20194;-85
2022/05/12 08:33:58;;;;;;;5.80;3.33;;;;;;;24.47;29.27;97567.03;5099709;28;20192;-85
2022/05/12 08:36:28;;;;;;;3.40;2.03;;;;;;;24.58;29.10;97601.31;5083955;28;20188;-86
2022/05/12 08:38:57;;;;;;;5.77;2.60;;;;;;;24.71;30.15;97599.19;5104643;28;20260;-87
2022/05/12 08:41:40;;;;;;;4.37;2.17;;;;;;;24.19;30.84;97545.78;5086435;28;20674;-86
2022/05/12 08:44:19;;;;;;;8.57;3.87;;;;;;;24.72;29.63;97588.44;5107891;28;20192;-85
2022/05/12 08:47:01;;;;;;;3.93;2.10;;;;;;;24.72;28.61;97577.84;5071997;28;20196;-85
2022/05/12 08:49:42;;;;;;;6.73;2.70;;;;;;;24.84;28.90;97555.53;5073053;28;20192;-86
2022/05/12 08:52:31;;;;;;;12.03;7.23;;;;;;;25.03;30.16;97599.66;5086176;28;20255;-86
2022/05/12 08:55:41;;;;;;;3.10;2.60;;;;;;;24.96;31.08;97602.06;5085579;28;20192;-87
2022/05/12 08:58:30;;;;;;;6.17;2.30;;;;;;;25.15;30.71;97602.97;5106769;28;20208;-85
2022/05/12 09:01:06;;;;;;;7.10;4.80;;;;;;;24.52;31.85;97596.59;5090403;28;20193;-87
2022/05/12 09:03:43;;;;;;;3.73;2.60;;;;;;;24.69;31.31;97587.91;5090473;28;20184;-84
2022/05/12 09:06:23;;;;;;;4.50;2.57;;;;;;;24.33;31.96;97564.84;5092288;28;20188;-85
2022/05/12 09:09:05;;;;;;;3.60;3.20;;;;;;;24.21;32.64;97594.09;5108262;28;20188;-87
2022/05/12 09:12:38;;;;;;;4.03;3.40;;;;;;;24.18;32.77;97567.94;5109242;28;20223;-89
2022/05/12 09:15:23;;;;;;;4.50;2.30;;;;;;;24.70;32.27;97582.47;4989574;28;20203;-85
2022/05/12 09:18:16;;;;;;;5.07;2.20;;;;;;;24.69;31.28;97580.78;5077220;28;20223;-86
2022/05/12 09:20:46;;;;;;;4.63;3.43;;;;;;;24.85;30.88;97580.22;5095266;28;20238;-87
2022/05/12 09:23:16;;;;;;;7.13;3.17;;;;;;;24.78;30.54;97584.41;5094040;28;20254;-86
2022/05/12 09:25:47;;;;;;;3.27;2.53;;;;;;;24.97;31.35;97584.34;5109225;28;20276;-85
2022/05/12 09:28:46;;;;;;;2.93;2.63;;;;;;;25.14;30.37;97580.94;5106607;28;20229;-86
2022/05/12 09:31:19;;;;;;;4.57;2.30;;;;;;;25.03;29.68;97550.16;5068439;28;20200;-86
2022/05/12 09:33:54;;;;;;;5.77;2.40;;;;;;;24.30;31.04;97575.75;5069574;28;20220;-86
2022/05/12 09:36:29;;;;;;;4.77;2.03;;;;;;;24.41;30.30;97584.34;5102584;28;20212;-86
2022/05/12 09:38:57;;;;;;;2.70;2.03;;;;;;;24.52;29.84;97586.84;5084286;28;20188;-85
2022/05/12 09:41:39;;;;;;;2.43;1.80;;;;;;;23.68;31.24;97573.50;5088038;28;20188;-85
2022/05/12 09:44:21;;;;;;;4.53;3.00;;;;;;;23.95;31.99;97566.53;5109155;28;20218;-86
2022/05/12 09:47:02;;;;;;;5.23;2.77;;;;;;;24.12;31.40;97547.31;5106740;28;20256;-86
2022/05/12 09:49:38;;;;;;;8.37;2.73;;;;;;;24.88;30.90;97588.69;5088673;28;20200;-86
2022/05/12 09:52:36;;;;;;;2.33;1.97;;;;;;;25.25;29.58;97583.38;5105619;28;20204;-86
2022/05/12 09:55:13;;;;;;;4.10;2.13;;;;;;;24.97;29.79;97582.53;5075856;28;20292;-86
2022/05/12 09:57:49;;;;;;;4.77;2.10;;;;;;;25.11;29.86;97575.06;5091415;28;20203;-88
2022/05/12 10:00:41;;;;;;;5.50;2.20;;;;;;;25.36;28.94;97571.72;5112130;28;20198;-86
2022/05/12 10:09:18;;;;;;;5.23;1.87;;;;;;;25.65;28.26;97575.06;5083310;28;20216;-88
2022/05/12 10:12:22;;;;;;;6.47;3.37;;;;;;;25.60;28.66;97533.06;5102788;28;20180;-85
2022/05/12 10:15:30;;;;;;;3.93;2.03;;;;;;;25.84;28.76;97567.78;5102442;28;20200;-89
2022/05/12 10:18:25;;;;;;;4.03;2.17;;;;;;;25.62;29.03;97573.53;5009120;28;20303;-85
2022/05/12 10:20:57;;;;;;;6.07;2.17;;;;;;;24.43;30.69;97539.19;5009057;28;20203;-85
2022/05/12 10:23:44;;;;;;;4.20;2.07;;;;;;;24.81;29.90;97571.69;5069866;28;20296;-85
2022/05/12 10:26:20;;;;;;;4.30;2.50;;;;;;;25.08;29.56;97556.81;5109886;28;20200;-85
2022/05/12 10:29:24;;;;;;;3.07;2.03;;;;;;;25.57;29.30;97559.91;5092226;28;20207;-84
2022/05/12 10:32:17;;;;;;;3.23;2.27;;;;;;;25.37;29.35;97505.28;5106997;28;20215;-87
2022/05/12 10:35:10;;;;;;;3.60;2.30;;;;;;;25.75;29.44;97547.47;5107445;28;20190;-85
2022/05/12 10:38:09;;;;;;;4.90;2.60;;;;;;;25.71;30.25;97556.75;5112591;28;20218;-85
2022/05/12 10:40:59;;;;;;;5.10;2.43;;;;;;;25.70;29.90;97544.44;5089514;28;20195;-85
2022/05/12 10:43:42;;;;;;;4.87;2.30;;;;;;;25.62;30.17;97552.31;5090122;28;20195;-85
2022/05/12 10:46:41;;;;;;;5.30;2.70;;;;;;;25.84;30.43;97537.78;5069654;28;20202;-84
2022/05/12 10:49:21;;;;;;;4.03;2.43;;;;;;;25.93;29.91;97539.50;5090605;28;20180;-86
2022/05/12 10:52:03;;;;;;;4.67;3.10;;;;;;;25.73;29.20;97536.19;5086388;28;20611;-86
2022/05/12 10:54:52;;;;;;;4.13;3.40;;;;;;;25.84;29.27;97530.63;5085241;28;20247;-86
2022/05/12 10:57:55;;;;;;;2.93;2.10;;;;;;;25.70;29.22;97532.97;5102046;28;20205;-85
2022/05/12 11:00:50;;;;;;;5.23;3.13;;;;;;;26.00;29.11;97523.81;5074936;28;20192;-84
2022/05/12 11:03:34;;;;;;;4.70;2.50;;;;;;;25.92;29.40;97524.56;5103030;28;20246;-86
2022/05/12 11:06:07;;;;;;;8.37;2.77;;;;;;;25.63;29.21;97469.09;5109336;28;20261;-83
2022/05/12 11:08:55;;;;;;;2.20;2.00;;;;;;;25.27;29.61;97496.56;5111289;28;20173;-86
2022/05/12 11:11:34;;;;;;;2.87;1.90;;;;;;;25.08;29.38;97479.94;5110338;28;20227;-85
2022/05/12 11:14:23;;;;;;;4.93;2.90;;;;;;;25.16;29.51;97511.84;5076543;28;20208;-85
2022/05/12 11:17:12;;;;;;;3.53;2.50;;;;;;;24.97;30.49;97507.50;5111807;28;20193;-86
2022/05/12 11:19:46;;;;;;;7.53;4.63;;;;;;;25.36;29.71;97514.22;5095120;28;20299;-87
2022/05/12 11:22:46;;;;;;;3.33;2.40;;;;;;;25.48;30.09;97515.72;5112766;28;20305;-85
2022/05/12 11:25:26;;;;;;;4.33;2.50;;;;;;;25.30;30.93;97488.31;5112451;28;20265;-85
2022/05/12 11:27:53;;;;;;;2.97;2.17;;;;;;;25.63;30.29;97508.91;5110982;28;20227;-87
2022/05/12 11:30:34;;;;;;;5.93;2.27;;;;;;;25.41;30.47;97498.72;5090452;28;20247;-85
2022/05/12 11:33:08;;;;;;;6.47;2.43;;;;;;;25.36;31.29;97441.78;5106450;28;20686;-84
2022/05/12 11:35:48;;;;;;;2.50;2.30;;;;;;;25.81;31.02;97461.94;5086575;28;20214;-87
2022/05/12 11:38:39;;;;;;;6.77;5.93;;;;;;;26.20;30.68;97485.47;5108027;28;20226;-84
2022/05/12 11:41:30;;;;;;;2.93;2.63;;;;;;;26.13;31.07;97442.78;5109541;28;20187;-85
2022/05/12 11:44:33;;;;;;;3.90;2.70;;;;;;;26.62;29.97;97481.09;5109653;28;20189;-85
2022/05/12 11:48:15;;;;;;;4.33;2.60;;;;;;;26.71;30.40;97477.47;5110957;28;20195;-85
2022/05/12 11:50:50;;;;;;;5.10;3.27;;;;;;;26.75;30.37;97478.03;4978948;28;20226;-85
2022/05/12 11:53:27;;;;;;;5.10;3.13;;;;;;;26.94;30.55;97470.63;5100027;28;20317;-86
2022/05/12 11:55:54;;;;;;;3.43;2.50;;;;;;;26.76;30.63;97469.03;5111918;28;20184;-86
2022/05/12 11:58:44;;;;;;;3.50;2.70;;;;;;;26.81;30.85;97467.56;5110884;28;20661;-84
2022/05/12 12:01:21;;;;;;;5.07;2.67;;;;;;;26.89;31.04;97472.09;5104375;28;20215;-95
2022/05/12 12:04:01;;;;;;;3.80;2.40;;;;;;;26.92;30.36;97451.34;5082433;28;20206;-87
2022/05/12 12:06:54;;;;;;;4.60;3.13;;;;;;;26.89;31.09;97446.34;5091821;28;20185;-85
2022/05/12 12:09:27;;;;;;;3.97;2.43;;;;;;;26.83;30.65;97452.28;5090001;28;20192;-84
2022/05/12 12:11:57;;;;;;;6.90;2.90;;;;;;;26.47;32.89;97446.31;5088802;28;20295;-85
2022/05/12 12:14:42;;;;;;;6.63;3.77;;;;;;;26.42;34.27;97447.78;5107486;28;20231;-85
2022/05/12 12:17:27;;;;;;;5.50;2.93;;;;;;;26.45;34.12;97434.16;5111656;28;20198;-85
2022/05/12 12:19:57;;;;;;;6.00;3.13;;;;;;;26.40;33.49;97447.06;5112307;28;20189;-85